Tiempo atmosférico en la estación meteorológica de Bossòst, Lleida (725 m.)



Fecha
DESCASC
Temp. máxima en grados centígrados (hora)
DESCASC
Temp. mínima en grados centígrados (hora)
DESCASC
Temp. media en grados centígrados
DESCASC
Racha de viento máxima en m/sg (hora)
DESCASC
Velocidad máxima media en intervalos de 10 minutos(hora)
DESCASC
Precipitaciones diarias en mm
DESCASC
Precipitaciones de 00:00 a 06:00 en mm
DESCASC
Precipitaciones de 06:00 a 12:00 en mm
DESCASC
Precipitaciones de 12:00 a 18:00 en mm
DESCASC
Precipitaciones de 18:00 a 24:00 en mm
DESCASC
10-07-2020 22.6 (11:40) 14 (04:30) 18.3 6.39 (11:50) 3.06 (12:10) -- -- -- -- --
09-07-2020 28.8 (16:20) 13.7 (05:30) 21.2 6.94 (21:00) 4.72 (21:00) -- -- -- -- --
08-07-2020 28.4 (16:50) 9.6 (06:50) 19 5.28 (13:50) 2.5 (14:20) -- -- -- -- --
07-07-2020 23.6 (16:50) 13.4 (06:40) 18.5 7.5 (16:20) 3.33 (15:50) -- -- -- -- --
06-07-2020 22.4 (14:00) 14.9 (00:00) 18.6 7.22 (16:40) 3.33 (13:30) -- -- -- -- --
05-07-2020 27.2 (16:30) 9.8 (00:00) 18.5 7.22 (18:00) 3.06 (18:00) -- -- -- -- --
04-07-2020 23.1 (17:20) 7.9 (00:00) 15.5 6.67 (17:10) 3.61 (07:10) -- -- -- -- --
03-07-2020 17.2 (14:50) 11.8 (06:30) 14.5 6.94 (15:50) 2.78 (15:00) -- -- -- -- --
02-07-2020 17.9 (13:50) 13.9 (00:00) 15.9 5.28 (14:00) 2.22 (21:30) -- -- -- -- --
01-07-2020 25.8 (14:10) 15 (00:00) 20.4 8.33 (01:40) 3.89 (01:10) -- -- -- -- --
30-06-2020 26.4 (17:10) 14.5 (00:00) 20.4 6.94 (18:30) 2.78 (14:30) -- -- -- -- --
29-06-2020 19.4 (14:00) 15.3 (00:00) 17.3 6.11 (14:10) 2.78 (14:10) -- -- -- -- --
28-06-2020 23.7 (17:20) 15.4 (00:00) 19.6 8.06 (15:50) 3.61 (15:50) -- -- -- -- --
27-06-2020 25.4 (15:20) 11.8 (00:00) 18.6 7.78 (15:40) 4.17 (00:10) -- -- -- -- --
26-06-2020 28.6 (14:40) 14.8 (00:00) 21.7 15 (20:20) 6.67 (20:20) -- -- -- -- --
25-06-2020 29.8 (15:10) 13.4 (00:00) 21.6 10.83 (17:40) 6.11 (17:40) -- -- -- -- --
24-06-2020 31.5 (14:30) 14.8 (00:00) 23.2 16.11 (18:00) 7.78 (18:00) -- -- -- -- --
23-06-2020 27.9 (15:20) 11.1 (00:00) 19.5 7.22 (16:10) 2.78 (16:10) -- -- -- -- --
22-06-2020 23.2 (16:40) 10.8 (00:00) 17 7.5 (14:40) 3.61 (15:50) -- -- -- -- --
21-06-2020 23.2 (16:20) 10.5 (00:00) 16.9 7.78 (14:20) 4.72 (02:40) -- -- -- -- --
20-06-2020 22.9 (14:40) 8.8 (00:00) 15.8 8.33 (14:10) 3.61 (16:20) -- -- -- -- --
19-06-2020 21.6 (15:10) 9.4 (00:00) 15.5 9.17 (15:30) 3.89 (15:30) -- -- -- -- --
18-06-2020 16.9 (13:40) 10.6 (00:00) 13.8 6.94 (14:40) 3.06 (15:30) -- -- -- -- --
17-06-2020 17.5 (13:50) 8.9 (00:00) 13.2 5.83 (15:00) 2.22 (15:00) -- -- -- -- --
16-06-2020 15 (15:30) 9.6 (00:00) 12.3 5 (18:50) 3.33 (18:40) -- -- -- -- --
15-06-2020 20.1 (14:30) 11 (00:00) 15.6 8.06 (15:30) 3.61 (15:30) -- -- -- -- --
14-06-2020 19.7 (15:30) 6 (00:00) 12.9 7.78 (14:50) 3.06 (15:50) -- -- -- -- --
13-06-2020 16.5 (10:30) 8 (00:00) 12.3 6.94 (10:40) 3.06 (12:50) -- -- -- -- --
12-06-2020 19.5 (12:00) 7.9 (00:00) 13.7 9.17 (22:50) 5 (22:20) -- -- -- -- --

Gráficas

Temp. máximas Temp. mínimas Temp. medias Precipitaciones Rachas de viento máximas Velocidades máximas media en intervalos de 10 minutos

Datos horarios

Fecha y hora oficial Temperatura (ºC) Velocidad del viento (km/h) Dirección del viento Racha (km/h) Dirección de racha Precipitación (mm) Presión (hPa) Tendencia (hPa) Humedad (%)
2020-07-11 23:00:00 17.8 0 Calma 5 Nordeste 0 -- -- 86
2020-07-11 22:00:00 18.1 2 Nordeste 10 Este 0 -- -- 84
2020-07-11 21:00:00 18.6 3 Nordeste 14 Norte 0 -- -- 83
2020-07-11 20:00:00 19.4 4 Norte 21 Nordeste 0 -- -- 80
2020-07-11 19:00:00 20.7 7 Norte 20 Nordeste 0 -- -- 76
2020-07-11 18:00:00 21.9 8 Norte 24 Norte 0 -- -- 72
2020-07-11 17:00:00 22.8 9 Norte 24 Norte 0 -- -- 69
2020-07-11 16:00:00 22.6 9 Norte 25 Nordeste 0 -- -- 69
2020-07-11 15:00:00 22.6 9 Norte 21 Norte 0 -- -- 69
2020-07-11 14:00:00 22.1 8 Norte 18 Nordeste 0 -- -- 71
2020-07-11 13:00:00 21 4 Norte 11 Norte 0 -- -- 71
2020-07-11 12:00:00 19.1 5 Norte 12 Norte 0 -- -- 79
2020-07-11 11:00:00 16.6 2 Norte 7 Norte 0 -- -- 86
2020-07-11 10:00:00 15.5 0 Calma 9 Norte 0 -- -- 92
2020-07-11 09:00:00 15 4 Norte 8 Nordeste 0 -- -- 96
2020-07-11 08:00:00 14.8 0 Calma 5 Nordeste 0 -- -- 96
2020-07-11 07:00:00 14.8 0 Calma 0 Calma 0 -- -- 97
2020-07-11 06:00:00 14.8 0 Calma 4 Nordeste 0 -- -- 96
2020-07-11 05:00:00 14.9 0 Calma 8 Norte 0 -- -- 96
2020-07-11 04:00:00 15.4 2 Norte 7 Nordeste 0 -- -- 95
2020-07-11 03:00:00 15.7 2 Nordeste 4 Nordeste 0 -- -- 95
2020-07-11 02:00:00 15.8 0 Calma 4 Este 0 -- -- 95
2020-07-11 01:00:00 15.9 0 Calma 8 Norte 0 -- -- 95
2020-07-11 00:00:00 16.4 3 Nordeste 10 Este 0 -- -- 92
2020-07-10 23:00:00 16.7 4 Norte 12 Nordeste 0 -- -- 94
2020-07-10 22:00:00 16.9 2 Este 5 Nordeste 0 -- -- 94
2020-07-10 21:00:00 17.3 3 Sur 5 Sudoeste 0 -- -- 95
2020-07-10 20:00:00 17.3 3 Sur 8 Sur 0 -- -- 94
2020-07-10 19:00:00 17.6 2 Sudeste 12 Norte 0.2 -- -- 91
2020-07-10 18:00:00 17.6 7 Nordeste 15 Nordeste 1.4 -- -- 92
2020-07-10 17:00:00 18.1 5 Norte 22 Norte 0.2 -- -- 90
2020-07-10 16:00:00 20.3 8 Norte 23 Norte 0 -- -- 80
2020-07-10 15:00:00 20.3 9 Norte 20 Norte 0 -- -- 80
2020-07-10 14:00:00 20.4 6 Norte 22 Norte 0 -- -- 79
2020-07-10 13:00:00 20.2 6 Nordeste 23 Norte 0 -- -- 80
2020-07-10 12:00:00 21.4 9 Norte 23 Norte 0 -- -- 77
2020-07-10 11:00:00 21.4 6 Norte 13 Norte 0 -- -- 75
2020-07-10 10:00:00 19.3 4 Norte 9 Norte 0 -- -- 82
2020-07-10 09:00:00 16.3 3 Sudoeste 13 Sudoeste 0 -- -- 94
2020-07-10 08:00:00 15.4 2 Oeste 11 Sudoeste 0 -- -- 93
2020-07-10 07:00:00 15.2 0 Calma 8 Sudoeste 0 -- -- 95
2020-07-10 06:00:00 14.9 2 Sudoeste 8 Sudoeste 0 -- -- 97
2020-07-10 05:00:00 -- 0 Calma 5 Sudoeste 0 -- -- --
2020-07-10 04:00:00 14.4 0 Calma 4 Nordeste 0 -- -- 96
2020-07-10 03:00:00 15 3 Sudoeste 7 Sur 0 -- -- 96
2020-07-10 02:00:00 15.4 4 Sudoeste 12 Sudoeste 0 -- -- 96
2020-07-10 01:00:00 -- 0 Calma 6 Sur 0 -- -- --
2020-07-10 00:00:00 17.2 0 Calma 17 Sudoeste 0 -- -- 91
2020-07-09 23:00:00 17.8 8 Sudoeste 19 Sudoeste 0 -- -- 89
2020-07-09 22:00:00 18.8 12 Sudoeste 23 Sudoeste 0 -- -- 85
2020-07-09 21:00:00 19.9 17 Sudoeste 25 Sudoeste 0 -- -- 84
2020-07-09 20:00:00 21.4 9 Sudoeste 21 Sudoeste 0 -- -- 86
2020-07-09 19:00:00 24.2 9 Sudoeste 21 Sudoeste 0 -- -- 67
2020-07-09 18:00:00 -- 5 Norte 15 Nordeste 0 -- -- --
2020-07-09 17:00:00 27.6 4 Norte 22 Norte 0 -- -- 59
2020-07-09 16:00:00 28.6 8 Norte 24 Nordeste 0 -- -- 55
2020-07-09 15:00:00 27.6 8 Norte 23 Nordeste 0 -- -- 56
2020-07-09 14:00:00 27.9 8 Nordeste 18 Norte 0 -- -- 54
2020-07-09 13:00:00 26.9 6 Norte 16 Norte 0 -- -- 59
2020-07-09 12:00:00 25.5 5 Nordeste 12 Norte 0 -- -- 59
2020-07-09 11:00:00 23.9 3 Este 10 Norte 0 -- -- 70
2020-07-09 10:00:00 21.1 3 Sur 12 Sudoeste 0 -- -- 76
2020-07-09 09:00:00 18.7 0 Calma 7 Norte 0 -- -- 85
2020-07-09 08:00:00 15.8 0 Calma 10 Sudoeste 0 -- -- 94
2020-07-09 07:00:00 15.3 8 Sudoeste 20 Sudoeste 0 -- -- 94
2020-07-09 06:00:00 14 4 Sudoeste 11 Sur 0 -- -- 98
2020-07-09 05:00:00 14.1 0 Calma 9 Sudoeste 0 -- -- 97
2020-07-09 04:00:00 14.4 2 Sudoeste 9 Sudoeste 0 -- -- 96
2020-07-09 03:00:00 14.7 2 Sudoeste 6 Norte 0 -- -- 96
2020-07-09 02:00:00 15.1 4 Sudoeste 8 Sudoeste 0 -- -- 94
2020-07-09 01:00:00 15.9 0 Calma 7 Sudoeste 0 -- -- 90
2020-07-09 00:00:00 16.6 2 Sudeste 12 Sudoeste 0 -- -- 88
2020-07-08 23:00:00 17.6 0 Calma 9 Sudoeste 0 -- -- 85
2020-07-08 22:00:00 18.5 4 Sudoeste 10 Sudoeste 0 -- -- 81
2020-07-08 21:00:00 20.1 2 Sudoeste 5 Sudoeste 0 -- -- 81
2020-07-08 20:00:00 22.4 0 Calma 6 Sudoeste 0 -- -- 72
2020-07-08 19:00:00 26.1 3 Sudoeste 11 Nordeste 0 -- -- 58
2020-07-08 18:00:00 28.1 5 Norte 16 Norte 0 -- -- 46
2020-07-08 17:00:00 28.2 7 Norte 17 Norte 0 -- -- 45
2020-07-08 16:00:00 27.6 8 Norte 19 Norte 0 -- -- 47
2020-07-08 15:00:00 26.9 8 Norte 19 Noroeste 0 -- -- 51
2020-07-08 14:00:00 25.9 8 Norte 19 Norte 0 -- -- 55
2020-07-08 13:00:00 24.2 5 Nordeste 16 Norte 0 -- -- 57
2020-07-08 12:00:00 23 4 Nordeste 12 Norte 0 -- -- 59
2020-07-08 11:00:00 20.8 3 Nordeste 7 Nordeste 0 -- -- 72
2020-07-08 10:00:00 16.8 0 Calma 4 Sudeste 0 -- -- 83
2020-07-08 09:00:00 12.3 0 Calma 5 Sudoeste 0 -- -- 98
2020-07-08 08:00:00 10 0 Calma 6 Sudoeste 0 -- -- 99
2020-07-08 07:00:00 9.7 0 Calma 4 Sudoeste 0 -- -- 99
2020-07-08 06:00:00 10 2 Sudoeste 5 Sudoeste 0 -- -- 98
2020-07-08 05:00:00 10.6 0 Calma 3 Sur 0 -- -- 98
2020-07-08 04:00:00 11.1 0 Calma 6 Sudoeste 0 -- -- 98
2020-07-08 03:00:00 11.6 2 Sudoeste 3 Sudoeste 0 -- -- 97
2020-07-08 02:00:00 12.3 0 Calma 8 Sudoeste 0 -- -- 96
2020-07-08 01:00:00 12.9 0 Calma 4 Oeste 0 -- -- 95
2020-07-08 00:00:00 13.7 4 Sudoeste 9 Sudoeste 0 -- -- 94
2020-07-07 23:00:00 14.4 0 Calma 3 Noroeste 0 -- -- 90
2020-07-07 22:00:00 16 0 Calma 3 Sur 0 -- -- 86
2020-07-07 21:00:00 18 0 Calma 10 Norte 0 -- -- 80
2020-07-07 20:00:00 20.2 4 Norte 18 Norte 0 -- -- 68
2020-07-07 19:00:00 21.3 7 Norte 23 Norte 0 -- -- 65
2020-07-07 18:00:00 23 11 Norte 25 Norte 0 -- -- 61
2020-07-07 17:00:00 23.6 10 Norte 27 Norte 0 -- -- 60
2020-07-07 16:00:00 23.3 11 Norte 26 Norte 0 -- -- 61
2020-07-07 15:00:00 23 9 Norte 25 Norte 0 -- -- 61
2020-07-07 14:00:00 22.4 10 Norte 20 Nordeste 0 -- -- 62
2020-07-07 13:00:00 21.8 8 Norte 17 Norte 0 -- -- 61
2020-07-07 12:00:00 20.7 7 Norte 15 Norte 0 -- -- 60
2020-07-07 11:00:00 19.6 5 Nordeste 9 Nordeste 0 -- -- 67
2020-07-07 10:00:00 17.2 3 Norte 7 Norte 0 -- -- 78
2020-07-07 09:00:00 14.4 0 Calma 4 Nordeste 0 -- -- 90
2020-07-07 08:00:00 13.6 0 Calma 4 Norte 0 -- -- 93
2020-07-07 07:00:00 13.4 2 Nordeste 4 Este 0 -- -- 95
2020-07-07 06:00:00 13.6 0 Calma 6 Este 0 -- -- 94
2020-07-07 05:00:00 14 2 Nordeste 8 Nordeste 0 -- -- 93
2020-07-07 04:00:00 14.5 3 Norte 6 Nordeste 0 -- -- 95
2020-07-07 03:00:00 14.8 0 Calma 6 Nordeste 0 -- -- 94
2020-07-07 02:00:00 15.3 0 Calma 10 Nordeste 0 -- -- 93
2020-07-07 01:00:00 16.1 4 Nordeste 14 Nordeste 0 -- -- 87
2020-07-07 00:00:00 16.6 4 Nordeste 11 Nordeste 0 -- -- 86
2020-07-06 23:00:00 17 0 Calma 13 Norte 0 -- -- 85
2020-07-06 22:00:00 17.3 4 Nordeste 15 Nordeste 0 -- -- 85
2020-07-06 21:00:00 18.1 6 Nordeste 18 Nordeste 0 -- -- 83
2020-07-06 20:00:00 19 4 Norte 16 Norte 0 -- -- 77
2020-07-06 19:00:00 20 4 Nordeste 20 Norte 0 -- -- 75
2020-07-06 18:00:00 20.3 8 Norte 22 Nordeste 0 -- -- 72
2020-07-06 17:00:00 21 9 Norte 26 Norte 0 -- -- 71
2020-07-06 16:00:00 21.5 7 Norte 23 Norte 0 -- -- 68
2020-07-06 15:00:00 21.9 8 Norte 24 Nordeste 0 -- -- 70
2020-07-06 14:00:00 22.4 9 Norte 24 Norte 0 -- -- 70
2020-07-06 13:00:00 20.8 6 Norte 17 Norte 0 -- -- 76
2020-07-06 12:00:00 19.2 6 Norte 15 Norte 0 -- -- 78
2020-07-06 11:00:00 17.5 3 Nordeste 10 Norte 0 -- -- 86
2020-07-06 10:00:00 16.2 4 Nordeste 15 Norte 0 -- -- 91
2020-07-06 09:00:00 16.4 4 Norte 12 Norte 0 -- -- 91
2020-07-06 08:00:00 15.5 0 Calma 3 Oeste 0 -- -- 99
2020-07-06 07:00:00 15.2 0 Calma 10 Sudoeste 0 -- -- 95
2020-07-06 06:00:00 16.3 8 Sudoeste 10 Sudoeste 0 -- -- 94
2020-07-06 05:00:00 17.1 0 Calma 3 Sur 0 -- -- 95
2020-07-06 04:00:00 17.2 0 Calma 4 Sudoeste 0 -- -- 94
2020-07-06 03:00:00 17.2 3 Sudoeste 5 Sudoeste 0 -- -- 93
2020-07-06 02:00:00 17.7 0 Calma 6 Sudoeste 0 -- -- 92
2020-07-06 01:00:00 18.2 0 Calma 6 Sudoeste 0 -- -- 90
2020-07-06 00:00:00 18.7 0 Calma 2 Oeste 0 -- -- 88
2020-07-05 23:00:00 19.8 0 Calma 4 Oeste 0 -- -- 84
2020-07-05 22:00:00 21.1 0 Calma 6 Norte 0 -- -- 79
2020-07-05 21:00:00 22.2 2 Sur 12 Norte 0 -- -- 75
2020-07-05 20:00:00 23.4 5 Nordeste 14 Nordeste 0 -- -- 68
2020-07-05 19:00:00 25.6 5 Norte 22 Nordeste 0 -- -- 60
2020-07-05 18:00:00 26.6 11 Norte 26 Norte 0 -- -- 56
2020-07-05 17:00:00 27.2 8 Norte 22 Nordeste 0 -- -- 53
2020-07-05 16:00:00 27 9 Norte 21 Norte 0 -- -- 51
2020-07-05 15:00:00 26.9 5 Norte 17 Norte 0 -- -- 50
2020-07-05 14:00:00 25.9 8 Norte 17 Norte 0 -- -- 53
2020-07-05 13:00:00 24.3 4 Norte 14 Norte 0 -- -- 50
2020-07-05 12:00:00 22.6 4 Norte 11 Norte 0 -- -- 49
2020-07-05 11:00:00 19.9 2 Este 5 Este 0 -- -- 66
2020-07-05 10:00:00 16.4 0 Calma 4 Sur 0 -- -- 80
2020-07-05 09:00:00 12.1 2 Sur 5 Sudoeste 0 -- -- 91
2020-07-05 08:00:00 9.9 2 Sudoeste 13 Sudoeste 0 -- -- 96
2020-07-05 07:00:00 10 6 Sudoeste 11 Sudoeste 0 -- -- 96
2020-07-05 06:00:00 10.2 5 Sudoeste 11 Sudoeste 0 -- -- 97
2020-07-05 05:00:00 10.5 2 Sur 5 Sur 0 -- -- 98
2020-07-05 04:00:00 11.1 2 Sudoeste 9 Sudoeste 0 -- -- 97
2020-07-05 03:00:00 11.9 4 Sur 11 Sur 0 -- -- 97
2020-07-05 02:00:00 12.4 2 Sudoeste 6 Oeste 0 -- -- 97
2020-07-05 01:00:00 13.5 2 Nordeste 10 Sudoeste 0 -- -- 96
2020-07-05 00:00:00 13.9 6 Sur 12 Sudoeste 0 -- -- 96
2020-07-04 23:00:00 14.2 5 Sudoeste 7 Sudoeste 0 -- -- 94
2020-07-04 22:00:00 15.6 0 Calma 4 Oeste 0 -- -- 91
2020-07-04 21:00:00 17.6 0 Calma 5 Oeste 0 -- -- 84
2020-07-04 20:00:00 19.9 0 Calma 14 Norte 0 -- -- 74
2020-07-04 19:00:00 22 6 Norte 23 Norte 0 -- -- 63
2020-07-04 18:00:00 23 6 Norte 24 Nordeste 0 -- -- 61
2020-07-04 17:00:00 23 9 Norte 23 Norte 0 -- -- 60
2020-07-04 16:00:00 22.8 8 Norte 22 Norte 0 -- -- 61
2020-07-04 15:00:00 22.3 9 Norte 19 Nordeste 0 -- -- 61
2020-07-04 14:00:00 21.3 9 Norte 19 Norte 0 -- -- 62
2020-07-04 13:00:00 20.3 7 Norte 20 Norte 0 -- -- 63
2020-07-04 12:00:00 18.5 6 Norte 15 Norte 0 -- -- 64
2020-07-04 11:00:00 17 5 Norte 9 Norte 0 -- -- 71
2020-07-04 10:00:00 13.8 3 Sur 6 Sur 0 -- -- 77
2020-07-04 09:00:00 10.3 3 Sudeste 4 Sur 0 -- -- 90
2020-07-04 08:00:00 8 2 Sur 18 Sudoeste 0 -- -- 94
2020-07-04 07:00:00 8.3 12 Sudoeste 17 Sudoeste 0 -- -- 95
2020-07-04 06:00:00 8.9 6 Sudoeste 12 Sudoeste 0 -- -- 94
2020-07-04 05:00:00 10.2 5 Sudoeste 10 Sudoeste 0 -- -- 93
2020-07-04 04:00:00 12 4 Sudoeste 8 Sudoeste 0 -- -- 93
2020-07-04 03:00:00 12.2 6 Sudoeste 10 Sudoeste 0 -- -- 91
2020-07-04 02:00:00 12.3 2 Sudoeste 6 Sudoeste 0 -- -- 94
2020-07-04 01:00:00 12.4 4 Sudoeste 5 Sur 0 -- -- 94
2020-07-04 00:00:00 12.4 0 Calma 4 Sur 0 -- -- 93
2020-07-03 23:00:00 13.6 0 Calma 2 Sur 0 -- -- 90
2020-07-03 22:00:00 14.3 3 Sudoeste 5 Nordeste 0 -- -- 87
2020-07-03 21:00:00 15.1 0 Calma 9 Nordeste 0 -- -- 84
2020-07-03 20:00:00 15.7 0 Calma 8 Norte 0 -- -- 78
2020-07-03 19:00:00 15.9 4 Norte 15 Norte 0 -- -- 74
2020-07-03 18:00:00 16.2 4 Nordeste 16 Norte 0 -- -- 72
2020-07-03 17:00:00 16.1 5 Norte 23 Norte 0 -- -- 71
2020-07-03 16:00:00 16.4 10 Norte 25 Norte 0.2 -- -- 72
2020-07-03 15:00:00 16.8 10 Norte 24 Norte 0 -- -- 70
2020-07-03 14:00:00 15.8 9 Norte 21 Norte 0 -- -- 77
2020-07-03 13:00:00 16.1 8 Norte 20 Noroeste 0 -- -- 74
2020-07-03 12:00:00 15.8 8 Norte 19 Norte 0 -- -- 77
2020-07-03 11:00:00 14 6 Norte 14 Norte 0 -- -- 82
2020-07-03 10:00:00 13 5 Nordeste 13 Norte 0 -- -- 86
2020-07-03 09:00:00 12.8 4 Nordeste 12 Este 0 -- -- 90
2020-07-03 08:00:00 12.1 4 Nordeste 7 Norte 0 -- -- 96
2020-07-03 07:00:00 11.9 0 Calma 5 Norte 0 -- -- 97
2020-07-03 06:00:00 11.9 0 Calma 10 Este 0.2 -- -- 95
2020-07-03 05:00:00 12.1 5 Nordeste 13 Norte 0 -- -- 93
2020-07-03 04:00:00 12.4 0 Calma 12 Norte 0 -- -- 95
2020-07-03 03:00:00 12.6 3 Norte 13 Nordeste 0 -- -- 94
2020-07-03 02:00:00 13.2 3 Nordeste 9 Nordeste 0.2 -- -- 94
2020-07-03 01:00:00 13.5 0 Calma 8 Nordeste 0 -- -- 95
2020-07-03 00:00:00 13.9 3 Nordeste 17 Nordeste 0 -- -- 90
2020-07-02 23:00:00 14.4 6 Nordeste 17 Nordeste 0 -- -- 86
2020-07-02 22:00:00 14.8 4 Nordeste 17 Nordeste 0 -- -- 87
2020-07-02 21:00:00 15.7 3 Este 13 Nordeste 0 -- -- 88
2020-07-02 20:00:00 16 4 Nordeste 16 Nordeste 0 -- -- 88
2020-07-02 19:00:00 17 4 Norte 17 Norte 0 -- -- 83
2020-07-02 18:00:00 17.3 6 Norte 15 Norte 0 -- -- 81
2020-07-02 17:00:00 17.5 6 Nordeste 17 Nordeste 0 -- -- 82
2020-07-02 16:00:00 17.4 6 Norte 15 Nordeste 0 -- -- 84
2020-07-02 15:00:00 17.2 4 Nordeste 13 Norte 0 -- -- 85
2020-07-02 14:00:00 17.8 7 Norte 19 Nordeste 0.2 -- -- 83
2020-07-02 13:00:00 17 4 Norte 18 Norte 0.2 -- -- 91
2020-07-02 12:00:00 16.6 2 Norte 14 Nordeste 0 -- -- 90
2020-07-02 11:00:00 16.5 4 Nordeste 18 Nordeste 0 -- -- 90
2020-07-02 10:00:00 17.4 6 Norte 14 Norte 0 -- -- 91
2020-07-02 09:00:00 16.6 0 Calma 4 Norte 0.2 -- -- 96
2020-07-02 08:00:00 16.3 0 Calma 3 Nordeste 0 -- -- 98
2020-07-02 07:00:00 16.3 0 Calma 5 Nordeste 0 -- -- 98
2020-07-02 06:00:00 16.5 2 Nordeste 5 Nordeste 0 -- -- 97
2020-07-02 05:00:00 16.7 0 Calma 4 Noroeste 0.2 -- -- 98
2020-07-02 04:00:00 16.8 0 Calma 4 Sudeste 0.2 -- -- 98
2020-07-02 03:00:00 17 0 Calma 5 Nordeste 0 -- -- 97
2020-07-02 02:00:00 17.2 0 Calma 7 Nordeste 0 -- -- 96
2020-07-02 01:00:00 17.5 0 Calma 2 Norte 0 -- -- 97
2020-07-02 00:00:00 17.6 0 Calma 10 Nordeste 0 -- -- 96
2020-07-01 23:00:00 18.1 2 Norte 8 Norte 0 -- -- 92
2020-07-01 22:00:00 18.5 2 Nordeste 5 Norte 0 -- -- 90
2020-07-01 21:00:00 18.9 4 Norte 6 Norte 0 -- -- 88
2020-07-01 20:00:00 19 2 Nordeste 8 Nordeste 0 -- -- 88
2020-07-01 19:00:00 18.8 5 Nordeste 12 Nordeste 0 -- -- 89
2020-07-01 18:00:00 19 3 Nordeste 11 Norte 0 -- -- 86
2020-07-01 17:00:00 19.4 5 Norte 17 Norte 0 -- -- 86
2020-07-01 16:00:00 20.9 8 Norte 29 Nordeste 0 -- -- 82
2020-07-01 15:00:00 23.7 12 Norte 27 Norte 0 -- -- 74
2020-07-01 14:00:00 25.7 8 Norte 20 Nordeste 0 -- -- 68
2020-07-01 13:00:00 24.7 6 Norte 19 Nordeste 0 -- -- 68
2020-07-01 12:00:00 23.4 5 Norte 15 Nordeste 0 -- -- 71
2020-07-01 11:00:00 22 3 Este 10 Nordeste 0 -- -- 77
2020-07-01 10:00:00 20.3 2 Norte 9 Nordeste 0 -- -- 81
2020-07-01 09:00:00 17.8 3 Este 9 Sudoeste 0 -- -- 90
2020-07-01 08:00:00 15.8 4 Sur 8 Sur 0 -- -- 97
2020-07-01 07:00:00 15.6 3 Sudoeste 18 Sudoeste 0 -- -- 97
2020-07-01 06:00:00 15 8 Sudoeste 13 Sur 0 -- -- 97
2020-07-01 05:00:00 15.8 7 Sur 14 Sur 0 -- -- 95
2020-07-01 04:00:00 15.9 5 Sur 12 Sudoeste 0 -- -- 96
2020-07-01 03:00:00 16.6 4 Sudoeste 17 Oeste 0.6 -- -- 92
2020-07-01 02:00:00 17.2 8 Sur 30 Oeste 2.8 -- -- 86
2020-07-01 01:00:00 17.6 9 Sur 23 Oeste 1.8 -- -- 91
2020-07-01 00:00:00 17.5 2 Nordeste 12 Sudoeste 0 -- -- 92
2020-06-30 23:00:00 17.2 5 Sur 14 Sudoeste 0 -- -- 92
2020-06-30 22:00:00 18.3 0 Calma 15 Sur 0 -- -- 88
2020-06-30 21:00:00 20.6 0 Calma 5 Sudoeste 0 -- -- 83
2020-06-30 20:00:00 22 0 Calma 6 Sudoeste 0 -- -- 77
2020-06-30 19:00:00 22.6 2 Este 25 Norte 0 -- -- 69
2020-06-30 18:00:00 26 8 Nordeste 18 Nordeste 0 -- -- 58
2020-06-30 17:00:00 26.2 6 Norte 21 Norte 0 -- -- 57
2020-06-30 16:00:00 25.9 8 Norte 19 Norte 0 -- -- 55
2020-06-30 15:00:00 25.1 8 Norte 21 Nordeste 0 -- -- 57
2020-06-30 14:00:00 24.3 9 Norte 21 Nordeste 0 -- -- 62
2020-06-30 13:00:00 23.6 5 Norte 13 Norte 0 -- -- 66
2020-06-30 12:00:00 22.1 4 Norte 11 Norte 0 -- -- 76
2020-06-30 11:00:00 20.5 3 Sudeste 6 Sudeste 0 -- -- 79
2020-06-30 10:00:00 17.6 2 Sur 6 Sur 0 -- -- 85
2020-06-30 09:00:00 16 0 Calma 4 Norte 0 -- -- 95
2020-06-30 08:00:00 15.1 0 Calma 4 Norte 0 -- -- 99
2020-06-30 07:00:00 14.7 0 Calma 2 Sur 0.2 -- -- 99
2020-06-30 06:00:00 14.6 0 Calma 4 Nordeste 0 -- -- 99
2020-06-30 05:00:00 14.6 0 Calma 5 Nordeste 0 -- -- 99
2020-06-30 04:00:00 14.7 3 Norte 6 Norte 0 -- -- 99
2020-06-30 03:00:00 14.8 0 Calma 4 Nordeste 0 -- -- 98
2020-06-30 02:00:00 15 0 Calma 3 Norte 0 -- -- 98
2020-06-30 01:00:00 15.1 0 Calma 5 Norte 0 -- -- 98
2020-06-30 00:00:00 15.3 0 Calma 3 Norte 0 -- -- 97
2020-06-29 23:00:00 15.5 0 Calma 5 Nordeste 0 -- -- 95
2020-06-29 22:00:00 15.9 0 Calma 6 Nordeste 0 -- -- 93
2020-06-29 21:00:00 16.6 3 Nordeste 11 Norte 0 -- -- 89
2020-06-29 20:00:00 17.4 5 Nordeste 11 Nordeste 0 -- -- 86
2020-06-29 19:00:00 17.8 4 Nordeste 13 Norte 0 -- -- 84
2020-06-29 18:00:00 18.2 4 Norte 16 Nordeste 0 -- -- 81
2020-06-29 17:00:00 18.4 7 Norte 18 Norte 0 -- -- 81
2020-06-29 16:00:00 18.3 7 Norte 18 Norte 0 -- -- 82
2020-06-29 15:00:00 18.6 7 Norte 22 Norte 0 -- -- 81
2020-06-29 14:00:00 19.4 8 Norte 21 Norte 0 -- -- 79
2020-06-29 13:00:00 19.1 6 Norte 18 Nordeste 0 -- -- 80
2020-06-29 12:00:00 19.1 5 Norte 13 Norte 0 -- -- 81
2020-06-29 11:00:00 18.1 4 Norte 12 Norte 0 -- -- 85
2020-06-29 10:00:00 17.4 4 Norte 9 Norte 0 -- -- 89
2020-06-29 09:00:00 17.2 0 Calma 4 Norte 0 -- -- 91
2020-06-29 08:00:00 16.3 0 Calma 3 Sudoeste 0 -- -- 97
2020-06-29 07:00:00 16.1 0 Calma 5 Nordeste 0 -- -- 97
2020-06-29 06:00:00 16.3 3 Sur 5 Sur 0 -- -- 96
2020-06-29 05:00:00 16.9 3 Sur 5 Sur 0 -- -- 95
2020-06-29 04:00:00 17.3 2 Sur 7 Nordeste 0 -- -- 96
2020-06-29 03:00:00 17.9 0 Calma 3 Norte 0 -- -- 93
2020-06-29 02:00:00 18.1 0 Calma 5 Nordeste 0 -- -- 91
2020-06-29 01:00:00 18.3 0 Calma 4 Este 0 -- -- 91
2020-06-29 00:00:00 18.6 2 Nordeste 5 Este 0 -- -- 90
2020-06-28 23:00:00 18.9 0 Calma 7 Nordeste 0 -- -- 88
2020-06-28 22:00:00 19.2 0 Calma 11 Nordeste 0 -- -- 87
2020-06-28 21:00:00 19.7 5 Nordeste 18 Nordeste 0 -- -- 83
2020-06-28 20:00:00 20.4 7 Norte 18 Norte 0 -- -- 81
2020-06-28 19:00:00 21.7 4 Norte 20 Norte 0 -- -- 78
2020-06-28 18:00:00 22.2 7 Norte 23 Norte 0 -- -- 77
2020-06-28 17:00:00 23.1 9 Norte 26 Norte 0 -- -- 75
2020-06-28 16:00:00 23.5 9 Norte 29 Norte 0 -- -- 74
2020-06-28 15:00:00 22.8 9 Norte 24 Nordeste 0 -- -- 76
2020-06-28 14:00:00 22.5 12 Norte 26 Norte 0 -- -- 75
2020-06-28 13:00:00 22.7 9 Norte 22 Norte 0 -- -- 75
2020-06-28 12:00:00 21.6 6 Norte 22 Norte 0 -- -- 77
2020-06-28 11:00:00 21.5 7 Norte 15 Norte 0 -- -- 77
2020-06-28 10:00:00 20.9 4 Nordeste 10 Nordeste 0 -- -- 82
2020-06-28 09:00:00 18.1 2 Norte 6 Norte 0 -- -- 88
2020-06-28 08:00:00 16.6 0 Calma 6 Sur 0 -- -- 95
2020-06-28 07:00:00 15.5 0 Calma 5 Nordeste 0 -- -- 97
2020-06-28 06:00:00 15.7 0 Calma 9 Sudoeste 0 -- -- 96
2020-06-28 05:00:00 16.2 3 Sur 5 Noroeste 0 -- -- 96
2020-06-28 04:00:00 16.6 3 Noroeste 10 Sudoeste 0 -- -- 94
2020-06-28 03:00:00 16.9 0 Calma 10 Sudoeste 0 -- -- 93
2020-06-28 02:00:00 16.9 3 Sudoeste 6 Sur 0 -- -- 92
2020-06-28 01:00:00 16.7 3 Sudoeste 9 Sudoeste 0 -- -- 95
2020-06-28 00:00:00 17.2 5 Sudoeste 7 Sudoeste 0 -- -- 93
2020-06-27 23:00:00 17.3 0 Calma 6 Sudoeste 0 -- -- 93
2020-06-27 22:00:00 18.7 0 Calma 4 Sur 0 -- -- 87
2020-06-27 21:00:00 20.6 0 Calma 7 Este 0 -- -- 83
2020-06-27 20:00:00 21.9 3 Norte 14 Norte 0 -- -- 72
2020-06-27 19:00:00 22.4 5 Norte 18 Norte 0 -- -- 70
2020-06-27 18:00:00 23.4 6 Norte 24 Norte 0 -- -- 66
2020-06-27 17:00:00 24.7 10 Norte 24 Nordeste 0 -- -- 61
2020-06-27 16:00:00 25 10 Norte 28 Norte 0 -- -- 59
2020-06-27 15:00:00 25.1 10 Norte 26 Norte 0 -- -- 58
2020-06-27 14:00:00 24.3 14 Norte 27 Norte 0 -- -- 61
2020-06-27 13:00:00 23.3 10 Norte 22 Norte 0.2 -- -- 65
2020-06-27 12:00:00 22.4 5 Norte 16 Nordeste 0 -- -- 71
2020-06-27 11:00:00 20.6 3 Nordeste 6 Nordeste 0 -- -- 77
2020-06-27 10:00:00 17.3 3 Sudeste 5 Sur 0 -- -- 84
2020-06-27 09:00:00 14.2 2 Sudeste 6 Sudoeste 0 -- -- 95
2020-06-27 08:00:00 12 2 Sudoeste 10 Sudoeste 0 -- -- 99
2020-06-27 07:00:00 11.9 3 Sudoeste 14 Sudoeste 0 -- -- 98
2020-06-27 06:00:00 12.3 0 Calma 8 Sur 0.6 -- -- 98
2020-06-27 05:00:00 13 3 Sudoeste 10 Sur 0.8 -- -- 98
2020-06-27 04:00:00 13.7 0 Calma 5 Oeste 1 -- -- 98
2020-06-27 03:00:00 14.1 0 Calma 5 Sudeste 0.8 -- -- 98
2020-06-27 02:00:00 14.5 3 Sudoeste 21 Nordeste 0.4 -- -- 98
2020-06-27 01:00:00 14.9 2 Sur 23 Sudoeste 0.4 -- -- 95
2020-06-27 00:00:00 15.4 16 Sudoeste 25 Oeste 0.4 -- -- 95
2020-06-26 23:00:00 15.5 8 Sudoeste 30 Sudoeste 0.2 -- -- 93
2020-06-26 22:00:00 15.5 11 Sudoeste 20 Sudoeste 0.4 -- -- 92
2020-06-26 21:00:00 16.4 6 Sudoeste 54 Sur 0.2 -- -- 89
2020-06-26 20:00:00 22.2 4 Sur 10 Nordeste 0 -- -- 83
2020-06-26 19:00:00 23.8 3 Nordeste 18 Norte 0 -- -- 79
2020-06-26 18:00:00 25 5 Norte 15 Norte 0 -- -- 75
2020-06-26 17:00:00 25.3 5 Norte 18 Norte 0 -- -- 73
2020-06-26 16:00:00 26.3 3 Sur 8 Sudoeste 0 -- -- 71
2020-06-26 15:00:00 28.4 3 Norte 10 Norte 0 -- -- 67
2020-06-26 14:00:00 27.1 3 Norte 10 Norte 0 -- -- 62
2020-06-26 13:00:00 25 4 Norte 11 Norte 0 -- -- 71
2020-06-26 12:00:00 23 5 Norte 12 Norte 0 -- -- 68
2020-06-26 11:00:00 21.3 4 Norte 12 Norte 0 -- -- 72
2020-06-26 10:00:00 19.3 3 Norte 10 Norte 0 -- -- 82
2020-06-26 09:00:00 16.4 0 Calma 8 Este 0 -- -- 92
2020-06-26 08:00:00 15.2 2 Este 9 Este 0.4 -- -- 94
2020-06-26 07:00:00 15.2 9 Sudoeste 19 Oeste 0.2 -- -- 89
2020-06-26 06:00:00 15.8 4 Noroeste 28 Sudoeste 0.4 -- -- 87
2020-06-26 05:00:00 15.9 8 Sudoeste 34 Oeste 0.6 -- -- 87
2020-06-26 04:00:00 15.5 15 Sudoeste 28 Sur 0.4 -- -- 92
2020-06-26 03:00:00 16.3 15 Sudoeste 28 Sudoeste 0.6 -- -- 85
2020-06-26 02:00:00 15.1 4 Sudoeste 25 Oeste 0.8 -- -- 96
2020-06-26 01:00:00 15.3 5 Sur 20 Sudoeste 1 -- -- 95
2020-06-26 00:00:00 15.9 13 Sudoeste 28 Oeste 0.8 -- -- 92
2020-06-25 23:00:00 15.5 9 Sudoeste 23 Oeste 0.6 -- -- 94
2020-06-25 22:00:00 16 10 Sudoeste 22 Oeste 0.6 -- -- 94
2020-06-25 21:00:00 16.5 14 Sudoeste 22 Sur 0.6 -- -- 93
2020-06-25 20:00:00 17.4 5 Sudoeste 27 Sudoeste 0.4 -- -- 92
2020-06-25 19:00:00 18.8 18 Sudoeste 31 Oeste 0 -- -- 78
2020-06-25 18:00:00 19.7 15 Sur 39 Sudoeste 2.2 -- -- 74
2020-06-25 17:00:00 21.4 12 Sur 32 Sudoeste 2.4 -- -- 85
2020-06-25 16:00:00 26.8 3 Nordeste 18 Norte 0 -- -- 66
2020-06-25 15:00:00 29.5 9 Norte 26 Norte 0 -- -- 53
2020-06-25 14:00:00 29.4 8 Norte 19 Norte 0 -- -- 49
2020-06-25 13:00:00 28.2 3 Nordeste 11 Norte 0 -- -- 48
2020-06-25 12:00:00 26.2 2 Este 6 Nordeste 0 -- -- 53
2020-06-25 11:00:00 23.1 3 Nordeste 6 Este 0 -- -- 70
2020-06-25 10:00:00 20 2 Sudeste 9 Sur 0 -- -- 73
2020-06-25 09:00:00 16.3 3 Sudeste 12 Sur 0 -- -- 80
2020-06-25 08:00:00 13.9 4 Sur 15 Sur 0 -- -- 83
2020-06-25 07:00:00 13.6 9 Sudoeste 23 Sudoeste 0 -- -- 83
2020-06-25 06:00:00 13.5 12 Sudoeste 21 Sudoeste 0 -- -- 82
2020-06-25 05:00:00 13.7 10 Sudoeste 26 Sudoeste 0 -- -- 82
2020-06-25 04:00:00 14.4 13 Sudoeste 25 Sudoeste 0 -- -- 80
2020-06-25 03:00:00 15.1 16 Sudoeste 27 Sudoeste 0 -- -- 79
2020-06-25 02:00:00 16.1 15 Sudoeste 32 Sudoeste 0 -- -- 75
2020-06-25 01:00:00 17.2 17 Sudoeste 35 Sudoeste 0 -- -- 72
2020-06-25 00:00:00 18 14 Sudoeste 31 Sudoeste 0 -- -- 71
2020-06-24 23:00:00 18.2 17 Sudoeste 37 Sudoeste 0 -- -- 72
2020-06-24 22:00:00 18.3 18 Sur 35 Sudoeste 0 -- -- 73
2020-06-24 21:00:00 18.2 13 Sudoeste 46 Sudoeste 0 -- -- 78
2020-06-24 20:00:00 17.4 17 Sudoeste 32 Sur 1 -- -- 84
2020-06-24 19:00:00 18.4 14 Sudoeste 45 Sudoeste 0 -- -- 79
2020-06-24 18:00:00 23.6 28 Sur 58 Sur 0 -- -- 56
2020-06-24 17:00:00 23.8 2 Sur 6 Sudoeste 0 -- -- 65
2020-06-24 16:00:00 29.7 4 Norte 19 Norte 0 -- -- 41
2020-06-24 15:00:00 31.5 8 Norte 19 Nordeste 0 -- -- 34
2020-06-24 14:00:00 31.1 7 Norte 19 Norte 0 -- -- 35
2020-06-24 13:00:00 29.8 3 Sudeste 6 Este 0 -- -- 47
2020-06-24 12:00:00 27 0 Calma 5 Sudeste 0 -- -- 59
2020-06-24 11:00:00 24.1 3 Este 4 Sur 0 -- -- 70
2020-06-24 10:00:00 21.7 0 Calma 6 Sudeste 0 -- -- 71
2020-06-24 09:00:00 18.7 5 Sur 12 Sur 0 -- -- 81
2020-06-24 08:00:00 16.2 6 Sur 13 Sudoeste 0 -- -- 83
2020-06-24 07:00:00 14.9 8 Sur 14 Sur 0 -- -- 90
2020-06-24 06:00:00 15.5 8 Sur 13 Sur 0 -- -- 88
2020-06-24 05:00:00 15.4 6 Sur 14 Sudoeste 0 -- -- 91
2020-06-24 04:00:00 15.1 2 Sur 8 Sur 0 -- -- 93
2020-06-24 03:00:00 15.3 3 Sudoeste 7 Sudoeste 0 -- -- 93
2020-06-24 02:00:00 16.3 5 Sur 14 Sudoeste 0 -- -- 91
2020-06-24 01:00:00 16.7 8 Sudoeste 15 Sudoeste 0 -- -- 90
2020-06-24 00:00:00 17.4 10 Sudoeste 15 Sudoeste 0 -- -- 88
2020-06-23 23:00:00 18 6 Sudoeste 13 Sudoeste 0 -- -- 86
2020-06-23 22:00:00 19.4 2 Sur 5 Sur 0 -- -- 83
2020-06-23 21:00:00 21 0 Calma 6 Sudoeste 0 -- -- 78
2020-06-23 20:00:00 24 0 Calma 13 Norte 0 -- -- 65
2020-06-23 19:00:00 26.7 4 Norte 21 Norte 0 -- -- 55
2020-06-23 18:00:00 27.6 8 Norte 22 Nordeste 0 -- -- 48
2020-06-23 17:00:00 27.9 9 Norte 26 Norte 0 -- -- 50
2020-06-23 16:00:00 27.8 9 Norte 25 Norte 0 -- -- 50
2020-06-23 15:00:00 27.7 9 Norte 22 Nordeste 0 -- -- 48
2020-06-23 14:00:00 26.6 6 Norte 18 Norte 0 -- -- 50
2020-06-23 13:00:00 25.1 5 Norte 14 Norte 0 -- -- 57
2020-06-23 12:00:00 23.5 4 Norte 9 Norte 0 -- -- 56
2020-06-23 11:00:00 21.3 3 Nordeste 6 Nordeste 0 -- -- 63
2020-06-23 10:00:00 17.7 0 Calma 3 Sur 0 -- -- 79
2020-06-23 09:00:00 13.8 3 Sur 9 Sudoeste 0 -- -- 91
2020-06-23 08:00:00 11.2 5 Sudoeste 10 Sudoeste 0 -- -- 97
2020-06-23 07:00:00 11.4 0 Calma 8 Sudoeste 0 -- -- 96
2020-06-23 06:00:00 12.1 3 Sudoeste 9 Sudoeste 0 -- -- 94
2020-06-23 05:00:00 12.8 6 Sudoeste 13 Sudoeste 0 -- -- 95
2020-06-23 04:00:00 13.9 7 Sudoeste 12 Sudoeste 0 -- -- 95
2020-06-23 03:00:00 15.5 0 Calma 4 Sudoeste 0 -- -- 92
2020-06-23 02:00:00 16.3 0 Calma 5 Sudoeste 0 -- -- 91
2020-06-23 01:00:00 16.3 4 Sudoeste 6 Sudoeste 0 -- -- 91
2020-06-23 00:00:00 16.4 0 Calma 6 Sudoeste 0 -- -- 91
2020-06-22 23:00:00 16.2 5 Sudoeste 7 Sudoeste 0 -- -- 92
2020-06-22 22:00:00 16.4 2 Sudoeste 3 Sudoeste 0 -- -- 89
2020-06-22 21:00:00 18.4 0 Calma 6 Este 0 -- -- 83
2020-06-22 20:00:00 20.3 0 Calma 17 Nordeste 0 -- -- 74
2020-06-22 19:00:00 21.9 6 Norte 22 Norte 0 -- -- 67
2020-06-22 18:00:00 22.6 9 Norte 24 Norte 0 -- -- 65
2020-06-22 17:00:00 23.2 9 Norte 22 Norte 0 -- -- 64
2020-06-22 16:00:00 22.9 11 Norte 25 Norte 0 -- -- 62
2020-06-22 15:00:00 22.7 10 Norte 27 Norte 0 -- -- 64
2020-06-22 14:00:00 22.5 9 Norte 25 Norte 0 -- -- 65
2020-06-22 13:00:00 21.8 10 Norte 23 Norte 0 -- -- 61
2020-06-22 12:00:00 20.9 7 Norte 18 Norte 0 -- -- 65
2020-06-22 11:00:00 19.7 4 Norte 10 Norte 0 -- -- 68
2020-06-22 10:00:00 17.4 2 Sudeste 4 Sur 0 -- -- 76
2020-06-22 09:00:00 13.9 2 Sur 4 Sudoeste 0 -- -- 91
2020-06-22 08:00:00 11.5 0 Calma 9 Sudoeste 0 -- -- 96
2020-06-22 07:00:00 11.4 3 Sudoeste 9 Sudoeste 0 -- -- 98
2020-06-22 06:00:00 10.9 3 Sudoeste 6 Sudoeste 0 -- -- 96
2020-06-22 05:00:00 11.8 2 Sur 4 Sudoeste 0 -- -- 95
2020-06-22 04:00:00 13.1 3 Sur 6 Sur 0 -- -- 93
2020-06-22 03:00:00 14.4 0 Calma 5 Norte 0 -- -- 91
2020-06-22 02:00:00 14.6 0 Calma 5 Sudoeste 0 -- -- 90
2020-06-22 01:00:00 15.6 0 Calma -- -- 0 -- -- 87
2020-06-22 00:00:00 16.4 0 Calma 3 Sur 0 -- -- 85
2020-06-21 23:00:00 17.5 0 Calma 6 Norte 0 -- -- 81
2020-06-21 22:00:00 18.6 0 Calma 9 Noroeste 0 -- -- 72
2020-06-21 21:00:00 19.5 2 Norte 10 Noroeste 0 -- -- 67
2020-06-21 20:00:00 20.4 2 Norte 16 Norte 0 -- -- 66
2020-06-21 19:00:00 21 5 Norte 16 Norte 0 -- -- 61
2020-06-21 18:00:00 21.6 6 Norte 17 Nordeste 0 -- -- 58
2020-06-21 17:00:00 23 5 Norte 25 Norte 0 -- -- 54
2020-06-21 16:00:00 22.9 11 Norte 26 Norte 0 -- -- 60
2020-06-21 15:00:00 22.7 11 Norte 28 Norte 0 -- -- 62
2020-06-21 14:00:00 22.3 9 Norte 24 Norte 0 -- -- 63
2020-06-21 13:00:00 21.7 9 Norte 21 Norte 0 -- -- 68
2020-06-21 12:00:00 20.7 6 Norte 14 Norte 0 -- -- 66
2020-06-21 11:00:00 19.2 4 Norte 10 Norte 0 -- -- 67
2020-06-21 10:00:00 16.3 3 Sur 4 Sur 0 -- -- 78
2020-06-21 09:00:00 13.1 0 Calma 3 Este 0 -- -- 88
2020-06-21 08:00:00 10.5 0 Calma 12 Sudoeste 0 -- -- 95
2020-06-21 07:00:00 10.7 7 Sur 17 Sudoeste 0 -- -- 94
2020-06-21 06:00:00 11.2 8 Sur 15 Sudoeste 0 -- -- 94
2020-06-21 05:00:00 11.8 9 Sudoeste 17 Sudoeste 0 -- -- 94
2020-06-21 04:00:00 12.6 8 Sudoeste 19 Sudoeste -- -- -- 93
2020-06-21 03:00:00 13.5 12 Sudoeste 26 Sudoeste 0 -- -- 93
2020-06-21 02:00:00 14.3 12 Sudoeste 18 Sudoeste 0 -- -- 96
2020-06-21 01:00:00 13.5 0 Calma 5 Sudoeste 0 -- -- 98
2020-06-21 00:00:00 13.4 0 Calma 4 Sur 0 -- -- 96
2020-06-20 23:00:00 14.8 0 Calma 4 Sudoeste 0 -- -- 92
2020-06-20 22:00:00 17 0 Calma 3 Sudeste 0 -- -- 86
2020-06-20 21:00:00 18.2 0 Calma 9 Norte 0 -- -- 82
2020-06-20 20:00:00 19.2 3 Norte 12 Nordeste 0 -- -- 76
2020-06-20 19:00:00 20.2 4 Nordeste 16 Nordeste 0 -- -- 72
2020-06-20 18:00:00 20.2 5 Norte 16 Nordeste 0 -- -- 70
2020-06-20 17:00:00 20.4 6 Norte 26 Nordeste 0 -- -- 69
2020-06-20 16:00:00 22.3 12 Norte 28 Nordeste 0 -- -- 65
2020-06-20 15:00:00 22.6 12 Norte 30 Norte 0 -- -- 62
2020-06-20 14:00:00 22.7 12 Norte 27 Nordeste 0 -- -- 57
2020-06-20 13:00:00 22.1 9 Norte 23 Norte 0 -- -- 59
2020-06-20 12:00:00 20.6 6 Norte 15 Norte 0 -- -- 63
2020-06-20 11:00:00 19.2 4 Nordeste 10 Norte 0 -- -- 63
2020-06-20 10:00:00 15.8 3 Sur 4 Sur 0 -- -- 83
2020-06-20 09:00:00 12 0 Calma 5 Sur 0 -- -- 97
2020-06-20 08:00:00 9 0 Calma 4 Sur 0 -- -- 100
2020-06-20 07:00:00 8.8 0 Calma 6 Sudoeste 0 -- -- 99
2020-06-20 06:00:00 9.1 0 Calma 4 Oeste 0 -- -- 98
2020-06-20 05:00:00 9.9 2 Sudoeste 9 Sur 0 -- -- 98
2020-06-20 04:00:00 10.7 6 Sudoeste 11 Sur 0 -- -- 98
2020-06-20 03:00:00 11.1 0 Calma 4 Sudoeste 0 -- -- 97
2020-06-20 02:00:00 12 0 Calma 9 Sudoeste 0 -- -- 97
2020-06-20 01:00:00 12 3 Sur 4 Sudoeste 0 -- -- 95
2020-06-20 00:00:00 13.3 2 Sur 4 Sur 0 -- -- 92
2020-06-19 23:00:00 14.6 0 Calma 4 Sur 0 -- -- 90
2020-06-19 22:00:00 15.5 0 Calma 3 Sur 0 -- -- 87
2020-06-19 21:00:00 16.3 0 Calma 3 Sudeste 0 -- -- 86
2020-06-19 20:00:00 17.1 3 Este 12 Norte 0 -- -- 75
2020-06-19 19:00:00 17.4 4 Norte 19 Norte 0 -- -- 74
2020-06-19 18:00:00 17.9 6 Norte 22 Norte 0 -- -- 72
2020-06-19 17:00:00 19 7 Norte 18 Nordeste 0 -- -- 69
2020-06-19 16:00:00 19.4 9 Norte 33 Norte 0 -- -- 68
2020-06-19 15:00:00 21.4 12 Norte 28 Norte 0 -- -- 64
2020-06-19 14:00:00 21.1 9 Norte 24 Norte 0 -- -- 63
2020-06-19 13:00:00 20.1 8 Norte 15 Norte 0 -- -- 61
2020-06-19 12:00:00 18.1 3 Este 10 Norte 0 -- -- 68
2020-06-19 11:00:00 16.6 3 Norte 9 Norte 0 -- -- 68
2020-06-19 10:00:00 15.1 2 Sudeste 6 Sur 0 -- -- 79
2020-06-19 09:00:00 11.6 4 Sudoeste 11 Sudoeste 0 -- -- 92
2020-06-19 08:00:00 9.4 6 Sudoeste 13 Sudoeste 0 -- -- 94
2020-06-19 07:00:00 9.7 6 Sudoeste 11 Sudoeste 0 -- -- 95
2020-06-19 06:00:00 10 4 Sudoeste 11 Sudoeste 0 -- -- 96
2020-06-19 05:00:00 10.1 4 Sudoeste 8 Sudoeste 0 -- -- 96
2020-06-19 04:00:00 10 3 Sudoeste 10 Sudoeste 0 -- -- 97
2020-06-19 03:00:00 10.1 2 Sudoeste 6 Sudoeste 0 -- -- 98
2020-06-19 02:00:00 10.2 0 Calma 6 Sudoeste 0 -- -- 97
2020-06-19 01:00:00 10.6 0 Calma 8 Sur 0 -- -- 95
2020-06-19 00:00:00 11.6 0 Calma 7 Sudoeste 0 -- -- 92
2020-06-18 23:00:00 12.5 3 Sur 5 Sudoeste 0 -- -- 91
2020-06-18 22:00:00 13.6 0 Calma 3 Sur 0 -- -- 86
2020-06-18 21:00:00 14.7 0 Calma 6 Sur 0 -- -- 84
2020-06-18 20:00:00 15.2 2 Sudeste 9 Nordeste 0 -- -- 78
2020-06-18 19:00:00 15.6 4 Norte 17 Norte 0 -- -- 70
2020-06-18 18:00:00 15.4 6 Norte 19 Norte 0 -- -- 72
2020-06-18 17:00:00 15.7 9 Norte 20 Nordeste 0 -- -- 70
2020-06-18 16:00:00 15.4 5 Norte 24 Norte 0 -- -- 74
2020-06-18 15:00:00 16.1 8 Norte 25 Norte 0 -- -- 70
2020-06-18 14:00:00 16.7 9 Norte 24 Norte 0 -- -- 69
2020-06-18 13:00:00 16.6 9 Norte 22 Norte 0.2 -- -- 67
2020-06-18 12:00:00 14.7 9 Norte 21 Norte 0 -- -- 73
2020-06-18 11:00:00 14.2 5 Norte 12 Norte 0 -- -- 77
2020-06-18 10:00:00 12.4 4 Norte 14 Norte 0 -- -- 87
2020-06-18 09:00:00 11.4 0 Calma 4 Norte 0 -- -- 93
2020-06-18 08:00:00 10.8 3 Sur 4 Sur 0.2 -- -- 94
2020-06-18 07:00:00 10.8 2 Sudeste 4 Sudoeste 0 -- -- 96
2020-06-18 06:00:00 10.6 0 Calma 7 Sudoeste 0 -- -- 95
2020-06-18 05:00:00 10.8 2 Sudoeste 4 Sudoeste 0 -- -- 97
2020-06-18 04:00:00 10.9 0 Calma 4 Nordeste 0 -- -- 96
2020-06-18 03:00:00 10.8 0 Calma 4 Norte 0.2 -- -- 96
2020-06-18 02:00:00 10.9 2 Oeste 5 Sudoeste 0 -- -- 95
2020-06-18 01:00:00 11.1 0 Calma 4 Este 0 -- -- 94
2020-06-18 00:00:00 11.5 0 Calma 2 Sur 0 -- -- 92
2020-06-17 23:00:00 11.9 0 Calma 3 Sur 0 -- -- 90
2020-06-17 22:00:00 12.4 0 Calma 7 Este 0 -- -- 85
2020-06-17 21:00:00 13 4 Nordeste 18 Norte 0.2 -- -- 78
2020-06-17 20:00:00 13.3 4 Norte 15 Nordeste 0 -- -- 79
2020-06-17 19:00:00 13.9 5 Norte 17 Nordeste 0 -- -- 79
2020-06-17 18:00:00 14.3 8 Nordeste 17 Norte 0 -- -- 79
2020-06-17 17:00:00 14.5 6 Nordeste 18 Norte 0.2 -- -- 77
2020-06-17 16:00:00 15.7 6 Norte 18 Norte 0 -- -- 71
2020-06-17 15:00:00 16.4 8 Norte 21 Norte 0 -- -- 66
2020-06-17 14:00:00 17.5 8 Norte 16 Norte 0.2 -- -- 59
2020-06-17 13:00:00 15.7 5 Norte 13 Norte 0 -- -- 65
2020-06-17 12:00:00 15.7 4 Norte 12 Nordeste 0 -- -- 63
2020-06-17 11:00:00 14 2 Norte 5 Nordeste 0.2 -- -- 76
2020-06-17 10:00:00 12.7 0 Calma 6 Sudoeste 0 -- -- 84
2020-06-17 09:00:00 10.8 0 Calma 4 Sudoeste 0 -- -- 97
2020-06-17 08:00:00 9.6 0 Calma 3 Sudoeste 0 -- -- 100
2020-06-17 07:00:00 9 0 Calma 4 Sur 0.2 -- -- 99
2020-06-17 06:00:00 9.6 0 Calma 5 Sudoeste 0 -- -- 99
2020-06-17 05:00:00 9.9 3 Sur 5 Sur 0 -- -- 99
2020-06-17 04:00:00 9.7 0 Calma 5 Sudoeste 0 -- -- 99
2020-06-17 03:00:00 9.7 0 Calma 4 Sudoeste 0.2 -- -- 99
2020-06-17 02:00:00 9.6 0 Calma 8 Sudoeste 0 -- -- 99
2020-06-17 01:00:00 9.3 2 Sudoeste 9 Sudoeste 0 -- -- 99
2020-06-17 00:00:00 9.6 3 Sudoeste 5 Sur 0 -- -- 98
2020-06-16 23:00:00 10.3 2 Sur 6 Oeste 0.2 -- -- 97
2020-06-16 22:00:00 11.1 0 Calma 5 Sur 0 -- -- 96
2020-06-16 21:00:00 11.7 0 Calma 8 Nordeste 0 -- -- 96
2020-06-16 20:00:00 12.2 5 Norte 11 Norte 0 -- -- 93
2020-06-16 19:00:00 13.1 5 Sudoeste 18 Sudoeste 0.2 -- -- 93
2020-06-16 18:00:00 12.3 3 Sur 9 Sudoeste 0 -- -- 95
2020-06-16 17:00:00 13.7 0 Calma 6 Nordeste 0 -- -- 90
2020-06-16 16:00:00 14.6 0 Calma 8 Norte 0 -- -- 83
2020-06-16 15:00:00 14.6 2 Oeste 9 Norte 0 -- -- 84
2020-06-16 14:00:00 14.5 4 Norte 11 Norte 0 -- -- 79
2020-06-16 13:00:00 13.6 3 Norte 10 Norte 0 -- -- 83
2020-06-16 12:00:00 13.1 3 Nordeste 9 Nordeste 0 -- -- 84
2020-06-16 11:00:00 12.5 2 Nordeste 7 Norte 0 -- -- 89
2020-06-16 10:00:00 12.6 0 Calma 5 Norte 0 -- -- 85
2020-06-16 09:00:00 12 2 Nordeste 4 Nordeste 0 -- -- 91
2020-06-16 08:00:00 11.8 0 Calma 4 Este 0 -- -- 92
2020-06-16 07:00:00 11.8 0 Calma 5 Nordeste 0 -- -- 93
2020-06-16 06:00:00 11.9 3 Este 11 Este 0 -- -- 91
2020-06-16 05:00:00 12.2 3 Nordeste 10 Nordeste 0 -- -- 93
2020-06-16 04:00:00 12.6 3 Nordeste 5 Nordeste 0 -- -- 94
2020-06-16 03:00:00 12.8 0 Calma 4 Nordeste 0 -- -- 95
2020-06-16 02:00:00 13 0 Calma 2 Norte 0 -- -- 95
2020-06-16 01:00:00 13.1 0 Calma 4 Nordeste 0 -- -- 93
2020-06-16 00:00:00 13.1 0 Calma 0 Calma 0 -- -- 94
2020-06-15 23:00:00 13.4 0 Calma 7 Este 0 -- -- 91
2020-06-15 22:00:00 13.7 4 Este 10 Nordeste 0 -- -- 88
2020-06-15 21:00:00 14.4 3 Nordeste 9 Norte 0 -- -- 83
2020-06-15 20:00:00 14.9 3 Norte 12 Nordeste 0 -- -- 79
2020-06-15 19:00:00 15.6 4 Norte 17 Norte 0 -- -- 77
2020-06-15 18:00:00 16.3 7 Norte 23 Nordeste 0 -- -- 72
2020-06-15 17:00:00 17.1 8 Norte 20 Norte 0 -- -- 70
2020-06-15 16:00:00 18.1 12 Norte 29 Norte 0 -- -- 67
2020-06-15 15:00:00 19.7 11 Norte 29 Norte 0 -- -- 58
2020-06-15 14:00:00 19.5 10 Norte 24 Nordeste 0.2 -- -- 62
2020-06-15 13:00:00 17.4 6 Norte 25 Norte 0 -- -- 70
2020-06-15 12:00:00 17.8 7 Norte 18 Nordeste 0 -- -- 72
2020-06-15 11:00:00 17.5 3 Este 6 Nordeste 0.2 -- -- 70
2020-06-15 10:00:00 15.6 3 Nordeste 6 Nordeste 0 -- -- 80
2020-06-15 09:00:00 12.3 0 Calma 0 Calma 0 -- -- 92
2020-06-15 08:00:00 11.4 0 Calma 0 Calma 0 -- -- 99
2020-06-15 07:00:00 11.1 0 Calma 0 Calma 0.2 -- -- 99
2020-06-15 06:00:00 11 0 Calma 0 Calma 0 -- -- 98
2020-06-15 05:00:00 11.2 0 Calma 2 Este 0 -- -- 98
2020-06-15 04:00:00 11.5 0 Calma 3 Nordeste 0 -- -- 98
2020-06-15 03:00:00 11.6 2 Nordeste 4 Este 0.2 -- -- 97
2020-06-15 02:00:00 11.9 0 Calma 5 Nordeste 0 -- -- 97
2020-06-15 01:00:00 12.2 0 Calma 3 Sur 0 -- -- 98
2020-06-15 00:00:00 12.4 0 Calma 4 Sudoeste 0 -- -- 97
2020-06-14 23:00:00 12.9 0 Calma 10 Nordeste 0 -- -- 93
2020-06-14 22:00:00 14.2 0 Calma 4 Nordeste 0 -- -- 88
2020-06-14 21:00:00 15 2 Este 6 Nordeste 0 -- -- 83
2020-06-14 20:00:00 15.4 0 Calma 6 Nordeste 0 -- -- 80
2020-06-14 19:00:00 16 0 Calma 12 Norte 0 -- -- 80
2020-06-14 18:00:00 16.9 5 Norte 16 Norte 0 -- -- 68
2020-06-14 17:00:00 17.9 6 Norte 22 Norte 0 -- -- 66
2020-06-14 16:00:00 19 10 Norte 27 Nordeste 0 -- -- 63
2020-06-14 15:00:00 18.9 10 Norte 28 Norte 0 -- -- 64
2020-06-14 14:00:00 19.5 9 Norte 21 Norte 0.2 -- -- 62
2020-06-14 13:00:00 17.4 4 Norte 9 Norte 0 -- -- 67
2020-06-14 12:00:00 14.5 2 Norte 6 Norte 0 -- -- 72
2020-06-14 11:00:00 13.1 0 Calma 9 Norte 0.2 -- -- 76
2020-06-14 10:00:00 11.8 3 Sudeste 5 Sur 0 -- -- 81
2020-06-14 09:00:00 9.2 2 Nordeste 3 Nordeste 0 -- -- 93
2020-06-14 08:00:00 7.6 0 Calma 6 Nordeste 0.2 -- -- 98
2020-06-14 07:00:00 6.3 0 Calma 5 Sur 0 -- -- 99
2020-06-14 06:00:00 6.4 0 Calma 12 Sudoeste 0 -- -- 98
2020-06-14 05:00:00 6.7 3 Sur 11 Sudoeste 0.2 -- -- 97
2020-06-14 04:00:00 7.1 6 Sudoeste 11 Oeste 0 -- -- 97
2020-06-14 03:00:00 7.5 5 Sudoeste 13 Sudoeste 0 -- -- 96
2020-06-14 02:00:00 8.1 7 Sudoeste 13 Sudoeste 0.2 -- -- 97
2020-06-14 01:00:00 9 10 Sudoeste 14 Sudoeste 0 -- -- 96
2020-06-14 00:00:00 10.1 6 Sur 12 Sudoeste 0.2 -- -- 94
2020-06-13 23:00:00 10.9 5 Sudoeste 10 Sudoeste 0 -- -- 92
2020-06-13 22:00:00 11.9 2 Oeste 5 Sudoeste 0 -- -- 89
2020-06-13 21:00:00 12.5 0 Calma 3 Sur 0.2 -- -- 86
2020-06-13 20:00:00 13.4 0 Calma 7 Noroeste 0 -- -- 83
2020-06-13 19:00:00 13.7 2 Este 14 Norte 0.2 -- -- 72
2020-06-13 18:00:00 13.8 4 Norte 21 Nordeste 0 -- -- 72
2020-06-13 17:00:00 14.5 2 Nordeste 10 Norte 0.2 -- -- 77
2020-06-13 16:00:00 14.1 2 Norte 24 Norte 0 -- -- 73
2020-06-13 15:00:00 14.7 11 Norte 24 Norte 0.2 -- -- 70
2020-06-13 14:00:00 15.8 9 Norte 23 Norte 0 -- -- 70
2020-06-13 13:00:00 15.4 9 Norte 23 Nordeste 0.2 -- -- 73
2020-06-13 12:00:00 14.6 5 Norte 21 Norte 0.2 -- -- 75
2020-06-13 11:00:00 15.2 6 Norte 25 Norte 0 -- -- 72
2020-06-13 10:00:00 14.8 2 Nordeste 8 Norte 0.2 -- -- 73
2020-06-13 09:00:00 11.6 0 Calma 6 Nordeste 0.2 -- -- 84
2020-06-13 08:00:00 8.2 3 Sur 7 Sudoeste 0 -- -- 97
2020-06-13 07:00:00 8.4 2 Oeste 6 Nordeste 0.2 -- -- 97
2020-06-13 06:00:00 8.4 2 Nordeste 6 Nordeste 0 -- -- 96
2020-06-13 05:00:00 9.1 3 Nordeste 10 Este 0.2 -- -- 97
2020-06-13 04:00:00 9.5 2 Norte 8 Sur 0.2 -- -- 96
2020-06-13 03:00:00 10 0 Calma 6 Oeste 0 -- -- 94
2020-06-13 02:00:00 10.6 2 Sudeste 17 Sudoeste 0.2 -- -- 90
2020-06-13 01:00:00 11 4 Sudoeste 10 Este 0.2 -- -- 85
2020-06-13 00:00:00 11.2 6 Este 19 Sudoeste 0 -- -- 76
2020-06-12 23:00:00 13.4 15 Sudoeste 33 Sudoeste 0.2 -- -- 67
2020-06-12 22:00:00 14.4 16 Sudoeste 26 Sur 0.2 -- -- 64
2020-06-12 21:00:00 13.2 10 Sudoeste 23 Sudoeste 0 -- -- 76
2020-06-12 20:00:00 14.8 12 Sur 24 Sudoeste 0.2 -- -- 68
2020-06-12 19:00:00 17.2 15 Sudoeste 28 Oeste 0.2 -- -- 59
2020-06-12 18:00:00 16.6 11 Sudoeste 30 Sudoeste 0.2 -- -- 56
2020-06-12 17:00:00 15.2 6 Sur 21 Sudoeste 0 -- -- 63
2020-06-12 16:00:00 14.7 5 Sur 13 Sudoeste 0.2 -- -- 77
2020-06-12 15:00:00 15.3 6 Sur 13 Sur 0.2 -- -- 73
2020-06-12 14:00:00 15.7 6 Sur 28 Sudoeste 0.2 -- -- 61
2020-06-12 13:00:00 18.7 14 Sudoeste 27 Sur 0.2 -- -- 47
2020-06-12 12:00:00 19.5 3 Sudoeste 28 Sudoeste 0.2 -- -- 56
2020-06-12 11:00:00 16.2 7 Sur 19 Sudoeste 0.4 -- -- 74
2020-06-12 10:00:00 14.2 3 Sudeste 7 Nordeste 0.2 -- -- 86
2020-06-12 09:00:00 11.1 3 Nordeste 8 Norte 0 -- -- 91
2020-06-12 08:00:00 8.4 4 Norte 9 Norte 0.2 -- -- 98
2020-06-12 07:00:00 8.4 5 Nordeste 19 Sur 0.2 -- -- 97
2020-06-12 06:00:00 8.4 6 Sur 24 Sur 0.2 -- -- 96
2020-06-12 05:00:00 8.1 4 Sudoeste 8 Norte 0.2 -- -- 98
2020-06-12 04:00:00 8.6 0 Calma 18 Sur 0.2 -- -- 96
2020-06-12 03:00:00 8.3 5 Sur 9 Nordeste 0.2 -- -- 98
2020-06-12 02:00:00 8.5 4 Nordeste 13 Nordeste 0.2 -- -- 95
2020-06-12 01:00:00 8.7 2 Nordeste 17 Nordeste 0.2 -- -- 96
2020-06-12 00:00:00 9.1 4 Norte 10 Oeste 0.2 -- -- 97